Skip Navigation LinksHome page > Weather > Current weather Skip Navigation Links

Current Weather

Ben-Gurion Intl Apt, Tel Aviv, Israel

For information only: do not use for flight planning or navigation.
Latest weather
Observation time Friday, March 23, 2018 9:50 AM IDT
Local time Friday, March 23, 2018 10:16 AM IDT
Flight conditions Visual Meteorological Conditions
Wind direction variable
Wind speed 2 mph
Visibility 6.2 mi.
Sky condition
Ceiling unlimited
Sky clear
Temperature 84°F
Dewpoint 45°F
Altimeter 29.74 in.Hg
Derived measurements
Relative humidity 25%
Heat index 84°F
Density altitude 2125 ft.
Ceiling and visibility OK.
METAR LLBG 230650Z VRB02KT CAVOK 29/07 Q1007 BECMG 22008KT RMK REP AT 0645Z 1000FT-WIND 180/20KT


Location code

InnerDrive.Weather 4.0.6615.0 Release CLR 4.0.30319.42000
Copyright ©2018 Inner Drive Technology. All rights reserved. Portions Copyright ©1986-2018 David Braverman.

Find weather

Site navigation

Skip Navigation Links

Place info

Page info

PayPal - The safer, easier way to pay online!

Return home.

Copyright ©2018 Inner Drive Technology. Purveyors of fine, hand-crafted computer software. Page printed 2018-03-23T07:16:23 UTC.